sensor_id;sensor_type;location;lat;lon;timestamp;P1;durP1;ratioP1;P2;durP2;ratioP2
25649;SDS011;13505;45.196;5.696;2023-03-01T05:02:31;34.38;;;18.10;;
25649;SDS011;13505;45.196;5.696;2023-03-01T05:07:21;33.10;;;17.73;;
25649;SDS011;13505;45.196;5.696;2023-03-01T05:12:12;32.47;;;18.27;;
25649;SDS011;13505;45.196;5.696;2023-03-01T05:17:03;32.40;;;17.50;;
25649;SDS011;13505;45.196;5.696;2023-03-01T05:21:53;32.35;;;17.60;;
25649;SDS011;13505;45.196;5.696;2023-03-01T05:26:56;34.05;;;18.35;;
25649;SDS011;13505;45.196;5.696;2023-03-01T05:31:46;35.50;;;17.65;;
25649;SDS011;13505;45.196;5.696;2023-03-01T05:36:36;33.42;;;17.77;;
25649;SDS011;13505;45.196;5.696;2023-03-01T05:41:28;32.00;;;18.13;;
25649;SDS011;13505;45.196;5.696;2023-03-01T05:46:18;35.42;;;18.05;;
25649;SDS011;13505;45.196;5.696;2023-03-01T05:51:08;34.30;;;18.83;;
25649;SDS011;13505;45.196;5.696;2023-03-01T05:55:59;35.83;;;19.42;;
25649;SDS011;13505;45.196;5.696;2023-03-01T06:00:50;32.03;;;17.42;;
25649;SDS011;13505;45.196;5.696;2023-03-01T06:05:40;36.60;;;17.85;;
25649;SDS011;13505;45.196;5.696;2023-03-01T06:10:31;32.30;;;16.83;;
25649;SDS011;13505;45.196;5.696;2023-03-01T06:15:21;29.90;;;16.48;;
25649;SDS011;13505;45.196;5.696;2023-03-01T06:25:10;38.47;;;19.13;;
25649;SDS011;13505;45.196;5.696;2023-03-01T06:30:02;31.40;;;17.63;;
25649;SDS011;13505;45.196;5.696;2023-03-01T06:34:53;36.38;;;19.17;;
25649;SDS011;13505;45.196;5.696;2023-03-01T06:39:43;32.78;;;17.30;;
25649;SDS011;13505;45.196;5.696;2023-03-01T06:44:34;30.58;;;17.67;;
25649;SDS011;13505;45.196;5.696;2023-03-01T06:49:24;31.58;;;17.70;;
25649;SDS011;13505;45.196;5.696;2023-03-01T06:54:14;33.00;;;18.58;;
25649;SDS011;13505;45.196;5.696;2023-03-01T06:59:05;31.35;;;17.38;;
25649;SDS011;13505;45.196;5.696;2023-03-01T07:03:56;32.08;;;17.42;;
25649;SDS011;13505;45.196;5.696;2023-03-01T07:08:46;40.00;;;18.88;;
25649;SDS011;13505;45.196;5.696;2023-03-01T07:13:37;36.25;;;19.17;;
25649;SDS011;13505;45.196;5.696;2023-03-01T07:18:27;37.28;;;18.90;;
25649;SDS011;13505;45.196;5.696;2023-03-01T07:23:18;33.55;;;18.70;;
25649;SDS011;13505;45.196;5.696;2023-03-01T07:28:08;32.28;;;16.73;;
25649;SDS011;13505;45.196;5.696;2023-03-01T07:32:58;35.17;;;17.27;;
25649;SDS011;13505;45.196;5.696;2023-03-01T07:37:49;36.97;;;19.58;;
25649;SDS011;13505;45.196;5.696;2023-03-01T07:42:39;37.47;;;18.33;;
25649;SDS011;13505;45.196;5.696;2023-03-01T07:47:30;31.23;;;16.83;;
25649;SDS011;13505;45.196;5.696;2023-03-01T07:52:20;38.63;;;18.80;;
25649;SDS011;13505;45.196;5.696;2023-03-01T07:57:11;36.25;;;19.63;;
25649;SDS011;13505;45.196;5.696;2023-03-01T08:02:01;39.38;;;20.63;;
25649;SDS011;13505;45.196;5.696;2023-03-01T08:06:52;47.85;;;22.63;;
25649;SDS011;13505;45.196;5.696;2023-03-01T08:11:43;42.83;;;20.25;;
25649;SDS011;13505;45.196;5.696;2023-03-01T08:16:34;37.47;;;19.40;;
25649;SDS011;13505;45.196;5.696;2023-03-01T08:21:25;43.40;;;22.27;;
25649;SDS011;13505;45.196;5.696;2023-03-01T08:26:17;53.58;;;25.88;;
25649;SDS011;13505;45.196;5.696;2023-03-01T08:31:28;57.72;;;25.35;;
25649;SDS011;13505;45.196;5.696;2023-03-01T08:36:21;43.03;;;21.80;;
25649;SDS011;13505;45.196;5.696;2023-03-01T08:41:13;37.53;;;19.70;;
25649;SDS011;13505;45.196;5.696;2023-03-01T08:46:04;35.65;;;19.33;;
25649;SDS011;13505;45.196;5.696;2023-03-01T08:50:54;43.28;;;20.88;;
25649;SDS011;13505;45.196;5.696;2023-03-01T08:55:45;37.00;;;20.42;;
25649;SDS011;13505;45.196;5.696;2023-03-01T09:00:36;48.47;;;21.75;;
25649;SDS011;13505;45.196;5.696;2023-03-01T09:05:26;53.08;;;22.35;;
25649;SDS011;13505;45.196;5.696;2023-03-01T09:10:16;48.55;;;24.05;;
25649;SDS011;13505;45.196;5.696;2023-03-01T09:15:07;46.40;;;23.30;;
25649;SDS011;13505;45.196;5.696;2023-03-01T09:19:58;48.38;;;22.92;;
25649;SDS011;13505;45.196;5.696;2023-03-01T09:24:49;45.65;;;22.30;;
25649;SDS011;13505;45.196;5.696;2023-03-01T09:29:39;43.40;;;21.70;;
25649;SDS011;13505;45.196;5.696;2023-03-01T09:34:30;50.33;;;22.50;;
25649;SDS011;13505;45.196;5.696;2023-03-01T09:39:21;40.70;;;21.70;;
25649;SDS011;13505;45.196;5.696;2023-03-01T09:49:02;41.30;;;22.52;;
25649;SDS011;13505;45.196;5.696;2023-03-01T09:54:03;41.00;;;21.90;;
25649;SDS011;13505;45.196;5.696;2023-03-01T10:09:29;40.13;;;20.63;;
25649;SDS011;13505;45.196;5.696;2023-03-01T10:19:30;58.25;;;25.27;;
25649;SDS011;13505;45.196;5.696;2023-03-01T10:24:24;40.67;;;22.33;;
25649;SDS011;13505;45.196;5.696;2023-03-01T10:29:15;42.58;;;21.13;;
25649;SDS011;13505;45.196;5.696;2023-03-01T10:34:16;50.25;;;23.15;;
25649;SDS011;13505;45.196;5.696;2023-03-01T10:39:14;45.15;;;22.80;;
25649;SDS011;13505;45.196;5.696;2023-03-01T10:44:09;54.97;;;24.55;;
25649;SDS011;13505;45.196;5.696;2023-03-01T10:49:31;45.40;;;21.17;;
25649;SDS011;13505;45.196;5.696;2023-03-01T10:54:28;40.92;;;21.10;;
25649;SDS011;13505;45.196;5.696;2023-03-01T11:04:14;49.08;;;21.15;;
25649;SDS011;13505;45.196;5.696;2023-03-01T11:09:15;41.70;;;21.20;;
25649;SDS011;13505;45.196;5.696;2023-03-01T11:14:16;41.55;;;21.92;;
25649;SDS011;13505;45.196;5.696;2023-03-01T11:24:01;52.28;;;22.35;;
25649;SDS011;13505;45.196;5.696;2023-03-01T11:28:54;43.33;;;22.67;;
25649;SDS011;13505;45.196;5.696;2023-03-01T11:33:59;41.75;;;22.13;;
25649;SDS011;13505;45.196;5.696;2023-03-01T11:39:37;41.35;;;21.52;;
25649;SDS011;13505;45.196;5.696;2023-03-01T11:44:40;42.80;;;22.88;;
25649;SDS011;13505;45.196;5.696;2023-03-01T11:54:39;46.22;;;23.80;;
25649;SDS011;13505;45.196;5.696;2023-03-01T12:04:49;44.88;;;23.25;;
25649;SDS011;13505;45.196;5.696;2023-03-01T12:10:17;38.92;;;21.75;;
25649;SDS011;13505;45.196;5.696;2023-03-01T12:20:26;41.80;;;21.00;;
25649;SDS011;13505;45.196;5.696;2023-03-01T12:25:25;38.50;;;21.50;;
25649;SDS011;13505;45.196;5.696;2023-03-01T12:30:42;38.78;;;20.98;;
25649;SDS011;13505;45.196;5.696;2023-03-01T12:51:37;35.25;;;19.48;;
25649;SDS011;13505;45.196;5.696;2023-03-01T12:56:31;38.97;;;20.80;;
25649;SDS011;13505;45.196;5.696;2023-03-01T13:17:41;38.33;;;21.40;;
25649;SDS011;13505;45.196;5.696;2023-03-01T13:22:34;42.53;;;21.55;;
25649;SDS011;13505;45.196;5.696;2023-03-01T13:27:25;40.15;;;21.55;;
25649;SDS011;13505;45.196;5.696;2023-03-01T13:37:25;43.95;;;21.02;;
25649;SDS011;13505;45.196;5.696;2023-03-01T13:42:52;36.33;;;20.75;;
25649;SDS011;13505;45.196;5.696;2023-03-01T13:47:36;42.08;;;22.98;;
25649;SDS011;13505;45.196;5.696;2023-03-01T13:52:44;40.60;;;20.80;;
25649;SDS011;13505;45.196;5.696;2023-03-01T13:57:38;38.25;;;21.58;;
25649;SDS011;13505;45.196;5.696;2023-03-01T14:02:29;43.90;;;22.13;;
25649;SDS011;13505;45.196;5.696;2023-03-01T14:07:20;37.20;;;20.80;;
25649;SDS011;13505;45.196;5.696;2023-03-01T14:12:23;35.72;;;20.45;;
25649;SDS011;13505;45.196;5.696;2023-03-01T14:17:20;42.42;;;21.55;;
25649;SDS011;13505;45.196;5.696;2023-03-01T14:22:23;36.93;;;20.80;;
25649;SDS011;13505;45.196;5.696;2023-03-01T14:27:17;36.70;;;21.05;;
25649;SDS011;13505;45.196;5.696;2023-03-01T14:32:09;37.15;;;20.65;;
25649;SDS011;13505;45.196;5.696;2023-03-01T14:37:45;37.13;;;21.48;;
25649;SDS011;13505;45.196;5.696;2023-03-01T14:42:22;38.00;;;20.88;;
25649;SDS011;13505;45.196;5.696;2023-03-01T14:47:20;37.50;;;21.50;;
25649;SDS011;13505;45.196;5.696;2023-03-01T14:52:22;40.78;;;21.20;;
25649;SDS011;13505;45.196;5.696;2023-03-01T14:57:23;47.60;;;21.75;;
25649;SDS011;13505;45.196;5.696;2023-03-01T15:02:16;42.40;;;22.65;;
25649;SDS011;13505;45.196;5.696;2023-03-01T15:07:09;43.13;;;21.98;;
25649;SDS011;13505;45.196;5.696;2023-03-01T15:22:25;42.45;;;21.35;;
25649;SDS011;13505;45.196;5.696;2023-03-01T15:27:17;43.42;;;21.75;;
25649;SDS011;13505;45.196;5.696;2023-03-01T15:47:25;41.40;;;21.95;;
25649;SDS011;13505;45.196;5.696;2023-03-01T15:52:23;37.67;;;21.58;;
25649;SDS011;13505;45.196;5.696;2023-03-01T15:57:19;39.60;;;22.05;;
25649;SDS011;13505;45.196;5.696;2023-03-01T16:02:10;37.72;;;21.85;;
25649;SDS011;13505;45.196;5.696;2023-03-01T16:07:02;39.55;;;21.65;;
25649;SDS011;13505;45.196;5.696;2023-03-01T16:11:54;40.20;;;21.95;;
25649;SDS011;13505;45.196;5.696;2023-03-01T16:16:44;39.78;;;20.83;;
25649;SDS011;13505;45.196;5.696;2023-03-01T16:21:36;42.17;;;21.70;;
25649;SDS011;13505;45.196;5.696;2023-03-01T16:26:27;40.80;;;21.40;;
25649;SDS011;13505;45.196;5.696;2023-03-01T16:31:20;40.63;;;22.52;;
25649;SDS011;13505;45.196;5.696;2023-03-01T16:36:11;38.63;;;21.60;;
25649;SDS011;13505;45.196;5.696;2023-03-01T16:41:02;44.38;;;21.10;;
25649;SDS011;13505;45.196;5.696;2023-03-01T16:45:52;43.17;;;22.45;;
25649;SDS011;13505;45.196;5.696;2023-03-01T16:50:43;43.17;;;22.73;;
25649;SDS011;13505;45.196;5.696;2023-03-01T16:55:33;41.58;;;21.25;;
25649;SDS011;13505;45.196;5.696;2023-03-01T17:00:24;37.85;;;21.00;;
25649;SDS011;13505;45.196;5.696;2023-03-01T17:05:14;41.45;;;22.33;;
25649;SDS011;13505;45.196;5.696;2023-03-01T17:10:06;46.70;;;21.67;;
25649;SDS011;13505;45.196;5.696;2023-03-01T17:14:58;42.63;;;22.23;;
25649;SDS011;13505;45.196;5.696;2023-03-01T17:19:48;42.58;;;22.33;;
25649;SDS011;13505;45.196;5.696;2023-03-01T17:24:39;40.78;;;21.42;;
25649;SDS011;13505;45.196;5.696;2023-03-01T17:29:30;50.38;;;22.95;;
25649;SDS011;13505;45.196;5.696;2023-03-01T17:34:23;42.45;;;21.88;;
25649;SDS011;13505;45.196;5.696;2023-03-01T17:39:14;42.08;;;22.45;;
25649;SDS011;13505;45.196;5.696;2023-03-01T17:44:04;42.33;;;22.60;;
25649;SDS011;13505;45.196;5.696;2023-03-01T17:48:55;41.80;;;22.70;;
25649;SDS011;13505;45.196;5.696;2023-03-01T17:53:45;41.15;;;21.23;;
25649;SDS011;13505;45.196;5.696;2023-03-01T17:58:36;45.15;;;22.63;;
25649;SDS011;13505;45.196;5.696;2023-03-01T18:03:28;43.75;;;22.58;;
25649;SDS011;13505;45.196;5.696;2023-03-01T18:08:18;41.10;;;21.98;;
25649;SDS011;13505;45.196;5.696;2023-03-01T18:13:08;42.67;;;21.60;;
25649;SDS011;13505;45.196;5.696;2023-03-01T18:17:59;44.85;;;23.13;;
25649;SDS011;13505;45.196;5.696;2023-03-01T18:22:49;44.20;;;22.05;;
25649;SDS011;13505;45.196;5.696;2023-03-01T18:27:41;50.47;;;25.45;;
25649;SDS011;13505;45.196;5.696;2023-03-01T18:32:32;43.72;;;22.20;;
25649;SDS011;13505;45.196;5.696;2023-03-01T18:37:22;47.83;;;22.17;;
25649;SDS011;13505;45.196;5.696;2023-03-01T18:42:13;44.53;;;22.33;;
25649;SDS011;13505;45.196;5.696;2023-03-01T18:47:05;44.67;;;23.02;;
25649;SDS011;13505;45.196;5.696;2023-03-01T18:51:55;42.33;;;22.30;;
25649;SDS011;13505;45.196;5.696;2023-03-01T18:56:46;43.05;;;23.20;;
25649;SDS011;13505;45.196;5.696;2023-03-01T19:01:36;45.17;;;23.88;;
25649;SDS011;13505;45.196;5.696;2023-03-01T19:06:28;49.72;;;25.13;;
25649;SDS011;13505;45.196;5.696;2023-03-01T19:11:20;47.05;;;23.83;;
25649;SDS011;13505;45.196;5.696;2023-03-01T19:16:15;45.58;;;22.48;;
25649;SDS011;13505;45.196;5.696;2023-03-01T19:21:10;43.72;;;21.92;;
25649;SDS011;13505;45.196;5.696;2023-03-01T19:26:01;46.90;;;24.85;;
25649;SDS011;13505;45.196;5.696;2023-03-01T19:31:03;47.33;;;24.98;;
25649;SDS011;13505;45.196;5.696;2023-03-01T19:35:56;50.03;;;24.25;;
25649;SDS011;13505;45.196;5.696;2023-03-01T19:40:46;46.90;;;24.25;;
25649;SDS011;13505;45.196;5.696;2023-03-01T19:45:36;43.78;;;22.60;;
25649;SDS011;13505;45.196;5.696;2023-03-01T19:50:27;44.22;;;23.58;;
25649;SDS011;13505;45.196;5.696;2023-03-01T19:55:17;51.58;;;25.52;;
25649;SDS011;13505;45.196;5.696;2023-03-01T20:00:08;48.05;;;25.13;;
25649;SDS011;13505;45.196;5.696;2023-03-01T20:04:59;48.67;;;25.27;;
25649;SDS011;13505;45.196;5.696;2023-03-01T20:09:49;47.60;;;23.77;;
25649;SDS011;13505;45.196;5.696;2023-03-01T20:14:39;48.40;;;25.25;;
25649;SDS011;13505;45.196;5.696;2023-03-01T20:19:30;47.45;;;24.80;;
25649;SDS011;13505;45.196;5.696;2023-03-01T20:24:20;48.53;;;24.40;;
25649;SDS011;13505;45.196;5.696;2023-03-01T20:29:11;47.28;;;24.48;;
25649;SDS011;13505;45.196;5.696;2023-03-01T20:34:01;49.50;;;24.92;;
25649;SDS011;13505;45.196;5.696;2023-03-01T20:38:53;49.65;;;25.10;;
25649;SDS011;13505;45.196;5.696;2023-03-01T20:43:44;47.83;;;25.45;;
25649;SDS011;13505;45.196;5.696;2023-03-01T20:48:42;47.28;;;24.90;;
25649;SDS011;13505;45.196;5.696;2023-03-01T20:53:32;46.92;;;24.27;;
25649;SDS011;13505;45.196;5.696;2023-03-01T20:58:23;47.95;;;25.10;;
25649;SDS011;13505;45.196;5.696;2023-03-01T21:03:14;43.80;;;23.02;;
25649;SDS011;13505;45.196;5.696;2023-03-01T21:08:04;51.03;;;25.63;;
25649;SDS011;13505;45.196;5.696;2023-03-01T21:12:54;50.38;;;26.30;;
25649;SDS011;13505;45.196;5.696;2023-03-01T21:17:45;50.47;;;26.33;;
25649;SDS011;13505;45.196;5.696;2023-03-01T21:22:35;50.55;;;26.77;;
25649;SDS011;13505;45.196;5.696;2023-03-01T21:27:25;47.85;;;24.83;;
25649;SDS011;13505;45.196;5.696;2023-03-01T21:32:16;51.05;;;26.15;;
25649;SDS011;13505;45.196;5.696;2023-03-01T21:37:06;52.50;;;26.23;;
25649;SDS011;13505;45.196;5.696;2023-03-01T21:41:59;43.40;;;24.35;;
25649;SDS011;13505;45.196;5.696;2023-03-01T21:46:51;53.25;;;27.00;;
25649;SDS011;13505;45.196;5.696;2023-03-01T21:51:42;53.42;;;27.08;;
25649;SDS011;13505;45.196;5.696;2023-03-01T21:56:33;48.42;;;25.80;;
25649;SDS011;13505;45.196;5.696;2023-03-01T22:01:27;46.58;;;25.40;;
25649;SDS011;13505;45.196;5.696;2023-03-01T22:06:19;48.60;;;25.23;;
25649;SDS011;13505;45.196;5.696;2023-03-01T22:11:12;51.17;;;26.25;;
25649;SDS011;13505;45.196;5.696;2023-03-01T22:16:03;55.10;;;27.17;;
25649;SDS011;13505;45.196;5.696;2023-03-01T22:20:53;52.90;;;26.13;;
25649;SDS011;13505;45.196;5.696;2023-03-01T22:25:43;52.70;;;27.10;;
25649;SDS011;13505;45.196;5.696;2023-03-01T22:30:34;52.40;;;26.05;;
25649;SDS011;13505;45.196;5.696;2023-03-01T22:35:24;52.05;;;26.40;;
25649;SDS011;13505;45.196;5.696;2023-03-01T22:40:15;56.63;;;28.00;;
25649;SDS011;13505;45.196;5.696;2023-03-01T22:45:05;48.28;;;25.58;;
25649;SDS011;13505;45.196;5.696;2023-03-01T22:49:56;55.28;;;28.08;;
25649;SDS011;13505;45.196;5.696;2023-03-01T22:54:46;54.85;;;27.67;;
25649;SDS011;13505;45.196;5.696;2023-03-01T22:59:37;50.85;;;26.30;;
